createdAt,value
2018-01-21T00:01:46.073Z,34.30
2018-01-21T00:04:13.546Z,32.47
2018-01-21T00:06:40.993Z,32.95
2018-01-21T00:09:08.429Z,42.03
2018-01-21T00:11:35.866Z,32.65
2018-01-21T00:14:04.058Z,36.22
2018-01-21T00:16:31.502Z,35.80
2018-01-21T00:18:58.933Z,37.50
2018-01-21T00:21:26.360Z,35.10
2018-01-21T00:23:53.794Z,32.37
2018-01-21T00:26:21.234Z,34.72
2018-01-21T00:28:48.662Z,29.63
2018-01-21T00:31:16.903Z,33.08
2018-01-21T00:33:44.436Z,34.05
2018-01-21T00:36:11.921Z,31.60
2018-01-21T00:38:39.369Z,34.13
2018-01-21T00:41:06.830Z,32.95
2018-01-21T00:43:34.254Z,33.30
2018-01-21T00:46:01.703Z,35.45
2018-01-21T00:48:29.185Z,30.73
2018-01-21T00:50:56.734Z,35.30
2018-01-21T00:53:24.205Z,32.90
2018-01-21T00:55:51.637Z,35.55
2018-01-21T00:58:19.074Z,33.42
2018-01-21T01:00:46.514Z,33.38
2018-01-21T01:03:14.037Z,38.13
2018-01-21T01:05:41.466Z,34.35
2018-01-21T01:08:08.902Z,34.63
2018-01-21T01:10:36.401Z,35.72
2018-01-21T01:13:03.845Z,34.20
2018-01-21T01:15:31.313Z,37.75
2018-01-21T01:17:58.765Z,37.33
2018-01-21T01:20:26.197Z,35.08
2018-01-21T01:22:53.634Z,33.72
2018-01-21T01:25:21.057Z,32.95
2018-01-21T01:27:48.496Z,36.20
2018-01-21T01:30:15.945Z,34.13
2018-01-21T01:32:43.397Z,34.28
2018-01-21T01:35:10.834Z,33.53
2018-01-21T01:37:38.278Z,32.70
2018-01-21T01:40:05.715Z,36.45
2018-01-21T01:42:33.914Z,36.05
2018-01-21T01:45:01.406Z,33.63
2018-01-21T01:47:28.862Z,33.08
2018-01-21T01:49:56.313Z,36.80
2018-01-21T01:52:23.962Z,37.67
2018-01-21T01:54:51.442Z,36.10
2018-01-21T01:57:18.877Z,34.97
2018-01-21T01:59:46.342Z,33.25
2018-01-21T02:02:13.887Z,33.95
2018-01-21T02:04:41.294Z,32.47
2018-01-21T02:07:08.731Z,34.83
2018-01-21T02:09:36.158Z,36.88
2018-01-21T02:12:03.607Z,33.90
2018-01-21T02:14:31.029Z,33.58
2018-01-21T02:16:59.259Z,33.03
2018-01-21T02:19:26.707Z,34.88
2018-01-21T02:21:54.143Z,34.67
2018-01-21T02:24:21.569Z,32.05
2018-01-21T02:26:49.773Z,33.00
2018-01-21T02:29:17.245Z,32.42
2018-01-21T02:31:44.686Z,31.12
2018-01-21T02:34:12.162Z,31.95
2018-01-21T02:36:39.706Z,29.55
2018-01-21T02:39:07.275Z,30.85
2018-01-21T02:41:34.742Z,31.33
2018-01-21T02:44:02.177Z,30.80
2018-01-21T02:46:29.645Z,30.52
2018-01-21T02:48:57.089Z,29.30
2018-01-21T02:51:24.562Z,28.70
2018-01-21T02:53:52.010Z,30.20
2018-01-21T02:56:19.475Z,29.00
2018-01-21T02:58:46.920Z,29.45
2018-01-21T03:01:14.337Z,31.58
2018-01-21T03:03:42.555Z,29.50
2018-01-21T03:06:09.981Z,28.73
2018-01-21T03:08:37.473Z,28.40
2018-01-21T03:11:04.933Z,31.08
2018-01-21T03:13:32.398Z,30.60
2018-01-21T03:15:59.842Z,28.40
2018-01-21T03:18:27.304Z,30.67
2018-01-21T03:20:54.771Z,32.35
2018-01-21T03:23:22.314Z,29.37
2018-01-21T03:25:49.845Z,31.20
2018-01-21T03:28:17.310Z,30.23
2018-01-21T03:30:44.717Z,30.08
2018-01-21T03:33:12.236Z,29.17
2018-01-21T03:35:39.665Z,29.23
2018-01-21T03:38:07.155Z,29.20
2018-01-21T03:40:34.615Z,31.40
2018-01-21T03:43:02.253Z,31.10
2018-01-21T03:45:29.675Z,33.55
2018-01-21T03:47:57.907Z,30.27
2018-01-21T03:50:25.338Z,33.10
2018-01-21T03:52:52.815Z,33.17
2018-01-21T03:55:20.265Z,30.23
2018-01-21T03:57:47.810Z,30.00
2018-01-21T04:00:15.217Z,32.28
2018-01-21T04:02:43.438Z,30.73
2018-01-21T04:05:10.878Z,33.03
2018-01-21T04:07:38.322Z,31.33
2018-01-21T04:10:06.627Z,31.50
2018-01-21T04:12:34.101Z,31.67
2018-01-21T04:15:01.558Z,31.12
2018-01-21T04:17:29.233Z,30.25
2018-01-21T04:19:56.687Z,32.50
2018-01-21T04:22:24.229Z,29.90
2018-01-21T04:24:51.686Z,33.35
2018-01-21T04:27:19.145Z,34.45
2018-01-21T04:29:46.581Z,31.80
2018-01-21T04:32:14.017Z,37.10
2018-01-21T04:34:41.466Z,33.95
2018-01-21T04:37:09.697Z,32.30
2018-01-21T04:39:37.133Z,32.90
2018-01-21T04:42:04.610Z,32.85
2018-01-21T04:44:32.142Z,32.50
2018-01-21T04:46:59.621Z,33.63
2018-01-21T04:49:27.177Z,31.98
2018-01-21T04:51:54.614Z,30.15
2018-01-21T04:54:22.061Z,30.83
2018-01-21T04:56:49.549Z,30.75
2018-01-21T04:59:17.001Z,32.38
2018-01-21T05:01:44.493Z,32.88
2018-01-21T05:04:12.737Z,31.15
2018-01-21T05:06:40.181Z,33.10
2018-01-21T05:09:07.642Z,32.30
2018-01-21T05:11:35.073Z,32.13
2018-01-21T05:14:02.510Z,31.70
2018-01-21T05:16:29.945Z,33.40
2018-01-21T05:18:58.194Z,34.03
2018-01-21T05:21:25.628Z,33.53
2018-01-21T05:23:53.053Z,35.30
2018-01-21T05:26:21.246Z,34.75
2018-01-21T05:28:48.812Z,34.42
2018-01-21T05:31:16.286Z,34.38
2018-01-21T05:33:43.723Z,35.08
2018-01-21T05:36:11.149Z,35.22
2018-01-21T05:38:39.362Z,35.38
2018-01-21T05:41:06.810Z,37.75
2018-01-21T05:43:34.265Z,39.65
2018-01-21T05:46:01.762Z,37.60
2018-01-21T05:48:29.189Z,38.65
2018-01-21T05:50:56.658Z,37.22
2018-01-21T05:53:24.122Z,38.88
2018-01-21T05:55:51.666Z,36.83
2018-01-21T05:58:19.099Z,35.58
2018-01-21T06:00:46.530Z,40.90
2018-01-21T06:03:14.757Z,37.80
2018-01-21T06:05:42.217Z,39.38
2018-01-21T06:08:09.665Z,41.72
2018-01-21T06:10:37.113Z,38.65
2018-01-21T06:13:04.561Z,38.13
2018-01-21T06:15:32.039Z,36.42
2018-01-21T06:17:59.493Z,38.17
2018-01-21T06:20:26.921Z,38.88
2018-01-21T06:22:54.358Z,38.42
2018-01-21T06:25:21.858Z,41.25
2018-01-21T06:27:49.286Z,40.30
2018-01-21T06:30:16.722Z,39.47
2018-01-21T06:32:45.053Z,50.50
2018-01-21T06:35:12.606Z,58.38
2018-01-21T06:37:40.062Z,59.60
2018-01-21T06:40:07.520Z,64.15
2018-01-21T06:42:34.974Z,69.80
2018-01-21T06:45:02.410Z,76.43
2018-01-21T06:47:29.883Z,72.68
2018-01-21T06:49:57.337Z,73.82
2018-01-21T06:52:24.773Z,61.90
2018-01-21T06:54:52.252Z,62.78
2018-01-21T06:57:19.684Z,49.45
2018-01-21T06:59:47.166Z,51.55
2018-01-21T07:02:14.621Z,51.60
2018-01-21T07:04:42.060Z,54.15
2018-01-21T07:07:09.533Z,53.50
2018-01-21T07:09:36.973Z,65.12
2018-01-21T07:12:04.402Z,53.20
2018-01-21T07:14:32.616Z,73.53
2018-01-21T07:17:00.048Z,70.50
2018-01-21T07:19:27.535Z,65.47
2018-01-21T07:21:54.990Z,82.07
2018-01-21T07:24:22.441Z,70.07
2018-01-21T07:26:49.869Z,125.68
2018-01-21T07:29:17.310Z,70.43
2018-01-21T07:31:45.516Z,118.72
2018-01-21T07:34:12.989Z,78.10
2018-01-21T07:36:40.430Z,128.35
2018-01-21T07:39:07.913Z,184.63
2018-01-21T07:41:35.350Z,74.80
2018-01-21T07:44:02.813Z,140.05
2018-01-21T07:46:30.355Z,114.45
2018-01-21T07:48:57.833Z,100.57
2018-01-21T07:51:25.268Z,105.10
2018-01-21T07:53:52.714Z,67.90
2018-01-21T07:56:20.141Z,109.57
2018-01-21T07:58:48.357Z,94.20
2018-01-21T08:01:15.822Z,82.60
2018-01-21T08:03:43.273Z,101.62
2018-01-21T08:06:10.745Z,109.72
2018-01-21T08:08:38.201Z,142.90
2018-01-21T08:11:05.657Z,119.17
2018-01-21T08:13:33.089Z,76.77
2018-01-21T08:16:00.577Z,70.73
2018-01-21T08:18:28.018Z,70.17
2018-01-21T08:20:55.460Z,71.65
2018-01-21T08:23:22.894Z,85.40
2018-01-21T08:25:50.348Z,64.28
2018-01-21T08:28:17.785Z,111.68
2018-01-21T08:30:46.022Z,63.70
2018-01-21T08:33:13.457Z,78.23
2018-01-21T08:35:46.569Z,172.70
2018-01-21T08:38:19.630Z,84.15
2018-01-21T08:40:52.929Z,89.53
2018-01-21T08:43:20.354Z,67.70
2018-01-21T08:45:48.569Z,63.45
2018-01-21T08:48:16.005Z,78.10
2018-01-21T08:50:43.438Z,63.47
2018-01-21T08:53:11.633Z,57.70
2018-01-21T08:55:39.113Z,101.07
2018-01-21T08:58:06.540Z,93.12
2018-01-21T09:00:33.978Z,78.40
2018-01-21T09:03:02.174Z,64.28
2018-01-21T09:05:29.745Z,165.02
2018-01-21T09:07:57.303Z,176.65
2018-01-21T09:10:24.721Z,116.93
2018-01-21T09:12:52.922Z,70.37
2018-01-21T09:15:20.359Z,110.70
2018-01-21T09:17:48.577Z,153.50
2018-01-21T09:20:16.138Z,89.35
2018-01-21T09:22:43.565Z,56.88
2018-01-21T09:25:11.054Z,58.75
2018-01-21T09:27:38.509Z,86.82
2018-01-21T09:30:05.991Z,62.70
2018-01-21T09:32:33.378Z,99.75
2018-01-21T09:35:00.940Z,52.75
2018-01-21T09:37:29.233Z,71.00
2018-01-21T09:39:56.649Z,67.65
2018-01-21T09:42:24.859Z,42.88
2018-01-21T09:44:52.341Z,63.05
2018-01-21T09:47:19.808Z,62.22
2018-01-21T09:49:47.345Z,64.30
2018-01-21T09:52:14.805Z,49.60
2018-01-21T09:54:42.233Z,55.33
2018-01-21T09:57:09.757Z,70.65
2018-01-21T09:59:37.158Z,118.78
2018-01-21T10:02:04.587Z,121.40
2018-01-21T10:04:32.023Z,63.13
2018-01-21T10:07:00.348Z,80.95
2018-01-21T10:09:27.766Z,79.87
2018-01-21T10:11:56.012Z,122.50
2018-01-21T10:14:23.569Z,61.67
2018-01-21T10:16:51.015Z,62.78
2018-01-21T10:19:18.458Z,87.53
2018-01-21T10:21:45.946Z,79.80
2018-01-21T10:24:13.500Z,94.15
2018-01-21T10:26:41.037Z,95.85
2018-01-21T10:29:08.481Z,98.07
2018-01-21T10:31:35.907Z,63.67
2018-01-21T10:34:03.408Z,70.47
2018-01-21T10:36:30.948Z,78.90
2018-01-21T10:38:58.508Z,70.22
2018-01-21T10:41:25.921Z,79.30
2018-01-21T10:43:54.146Z,71.68
2018-01-21T10:46:21.605Z,56.53
2018-01-21T10:48:49.890Z,57.28
2018-01-21T10:51:17.327Z,59.70
2018-01-21T10:53:44.750Z,59.63
2018-01-21T10:56:12.969Z,55.75
2018-01-21T10:58:40.434Z,51.90
2018-01-21T11:01:07.890Z,61.65
2018-01-21T11:03:35.334Z,56.28
2018-01-21T11:06:02.802Z,52.25
2018-01-21T11:08:30.241Z,54.42
2018-01-21T11:10:57.686Z,51.20
2018-01-21T11:13:25.130Z,52.85
2018-01-21T11:15:52.578Z,49.75
2018-01-21T11:18:20.792Z,52.28
2018-01-21T11:20:48.234Z,50.40
2018-01-21T11:23:15.673Z,52.47
2018-01-21T11:25:43.166Z,47.13
2018-01-21T11:28:10.585Z,48.83
2018-01-21T11:30:38.089Z,47.38
2018-01-21T11:33:05.518Z,51.17
2018-01-21T11:35:32.994Z,48.63
2018-01-21T11:38:00.489Z,48.63
2018-01-21T11:40:28.694Z,48.57
2018-01-21T11:42:56.160Z,50.28
2018-01-21T11:45:23.719Z,54.90
2018-01-21T11:47:51.130Z,50.12
2018-01-21T11:50:19.339Z,53.33
2018-01-21T11:52:46.818Z,52.42
2018-01-21T11:55:14.266Z,48.50
2018-01-21T11:57:41.701Z,54.70
2018-01-21T12:00:09.194Z,55.40
2018-01-21T12:02:36.649Z,60.47
2018-01-21T12:05:04.115Z,60.95
2018-01-21T12:07:32.306Z,53.38
2018-01-21T12:09:59.752Z,52.13
2018-01-21T12:12:27.186Z,54.25
2018-01-21T12:14:54.648Z,48.85
2018-01-21T12:17:22.091Z,48.58
2018-01-21T12:19:49.534Z,48.05
2018-01-21T12:22:16.969Z,48.10
2018-01-21T12:24:45.202Z,45.65
2018-01-21T12:27:12.736Z,45.63
2018-01-21T12:29:40.155Z,39.63
2018-01-21T12:32:08.465Z,42.53
2018-01-21T12:34:35.939Z,44.30
2018-01-21T12:37:03.374Z,45.17
2018-01-21T12:39:30.822Z,41.10
2018-01-21T12:41:58.257Z,41.60
2018-01-21T12:44:26.453Z,42.77
2018-01-21T12:46:54.333Z,40.35
2018-01-21T12:49:21.809Z,36.78
2018-01-21T12:51:49.346Z,40.80
2018-01-21T12:54:16.774Z,44.25
2018-01-21T12:56:44.974Z,40.88
2018-01-21T12:59:12.450Z,40.03
2018-01-21T13:01:39.904Z,39.63
2018-01-21T13:04:07.327Z,36.70
2018-01-21T13:06:35.201Z,38.53
2018-01-21T13:09:02.637Z,44.28
2018-01-21T13:11:30.120Z,40.28
2018-01-21T13:13:57.602Z,40.70
2018-01-21T13:16:25.056Z,43.25
2018-01-21T13:18:52.487Z,43.80
2018-01-21T13:21:19.937Z,39.35
2018-01-21T13:23:47.366Z,42.40
2018-01-21T13:26:15.593Z,36.63
2018-01-21T13:28:43.032Z,39.10
2018-01-21T13:31:10.453Z,37.70
2018-01-21T13:33:38.659Z,40.78
2018-01-21T13:36:06.084Z,39.05
2018-01-21T13:38:34.286Z,39.15
2018-01-21T13:41:01.778Z,34.60
2018-01-21T13:43:29.209Z,35.80
2018-01-21T13:45:56.760Z,36.47
2018-01-21T13:48:24.246Z,36.75
2018-01-21T13:50:51.879Z,36.65
2018-01-21T13:53:19.288Z,34.55
2018-01-21T13:55:46.829Z,36.63
2018-01-21T13:58:14.260Z,32.63
2018-01-21T14:00:41.714Z,37.25
2018-01-21T14:03:09.141Z,34.78
2018-01-21T14:05:36.578Z,36.15
2018-01-21T14:08:04.773Z,33.85
2018-01-21T14:10:32.262Z,36.75
2018-01-21T14:12:59.685Z,39.78
2018-01-21T14:15:27.158Z,37.53
2018-01-21T14:17:54.565Z,34.53
2018-01-21T14:20:22.070Z,34.67
2018-01-21T14:22:49.549Z,35.05
2018-01-21T14:25:16.978Z,36.30
2018-01-21T14:27:44.454Z,34.75
2018-01-21T14:30:11.918Z,33.00
2018-01-21T14:32:39.363Z,35.47
2018-01-21T14:35:06.801Z,35.75
2018-01-21T14:37:34.236Z,38.47
2018-01-21T14:40:02.540Z,40.08
2018-01-21T14:42:30.018Z,46.33
2018-01-21T14:44:57.490Z,45.65
2018-01-21T14:47:25.010Z,44.47
2018-01-21T14:49:52.466Z,51.20
2018-01-21T14:52:19.949Z,57.65
2018-01-21T14:54:47.378Z,70.05
2018-01-21T14:57:14.861Z,56.53
2018-01-21T14:59:42.305Z,52.45
2018-01-21T15:02:09.754Z,54.60
2018-01-21T15:04:37.185Z,57.00
2018-01-21T15:07:05.432Z,50.67
2018-01-21T15:09:33.085Z,57.70
2018-01-21T15:12:00.612Z,53.30
2018-01-21T15:14:28.023Z,60.55
2018-01-21T15:16:56.243Z,59.42
2018-01-21T15:19:23.678Z,61.67
2018-01-21T15:21:51.143Z,55.85
2018-01-21T15:24:18.595Z,55.95
2018-01-21T15:26:46.058Z,62.90
2018-01-21T15:29:13.482Z,61.65
2018-01-21T15:31:41.690Z,62.67
2018-01-21T15:34:09.266Z,64.10
2018-01-21T15:36:36.729Z,54.25
2018-01-21T15:39:04.166Z,58.50
2018-01-21T15:41:31.614Z,56.50
2018-01-21T15:43:59.049Z,57.47
2018-01-21T15:46:26.563Z,58.45
2018-01-21T15:48:53.982Z,55.10
2018-01-21T15:51:21.543Z,53.63
2018-01-21T15:53:48.961Z,56.67
2018-01-21T15:56:17.188Z,64.53
2018-01-21T15:58:44.613Z,67.87
2018-01-21T16:01:12.187Z,65.27
2018-01-21T16:03:39.611Z,64.47
2018-01-21T16:06:07.839Z,65.87
2018-01-21T16:08:35.270Z,70.28
2018-01-21T16:11:02.701Z,58.10
2018-01-21T16:13:30.913Z,63.78
2018-01-21T16:15:58.391Z,67.90
2018-01-21T16:18:26.019Z,60.65
2018-01-21T16:20:53.446Z,60.53
2018-01-21T16:23:21.637Z,63.85
2018-01-21T16:25:49.077Z,56.80
2018-01-21T16:28:17.382Z,57.40
2018-01-21T16:30:44.821Z,54.00
2018-01-21T16:33:12.293Z,50.83
2018-01-21T16:35:39.750Z,53.97
2018-01-21T16:38:19.286Z,48.45
2018-01-21T16:40:46.782Z,52.62
2018-01-21T16:43:14.194Z,48.53
2018-01-21T16:45:41.676Z,58.63
2018-01-21T16:48:09.103Z,51.88
2018-01-21T16:50:36.593Z,50.67
2018-01-21T16:53:04.049Z,45.00
2018-01-21T16:55:31.481Z,51.33
2018-01-21T16:57:58.909Z,51.53
2018-01-21T17:00:27.126Z,55.42
2018-01-21T17:02:54.602Z,51.47
2018-01-21T17:05:22.041Z,46.15
2018-01-21T17:07:49.511Z,45.45
2018-01-21T17:10:17.041Z,47.08
2018-01-21T17:12:44.495Z,39.10
2018-01-21T17:15:12.057Z,38.08
2018-01-21T17:17:39.480Z,34.55
2018-01-21T17:20:07.706Z,38.63
2018-01-21T17:22:35.151Z,35.88
2018-01-21T17:25:02.594Z,42.53
2018-01-21T17:27:30.073Z,38.17
2018-01-21T17:29:57.713Z,32.80
2018-01-21T17:32:25.185Z,32.45
2018-01-21T17:34:52.622Z,29.48
2018-01-21T17:37:20.071Z,32.50
2018-01-21T17:39:47.508Z,35.00
2018-01-21T17:42:15.731Z,33.22
2018-01-21T17:44:43.181Z,30.67
2018-01-21T17:47:10.640Z,29.48
2018-01-21T17:49:38.077Z,32.30
2018-01-21T17:52:05.639Z,35.88
2018-01-21T17:54:33.094Z,32.05
2018-01-21T17:57:00.507Z,31.60
2018-01-21T17:59:28.697Z,34.00
2018-01-21T18:01:56.897Z,31.02
2018-01-21T18:04:24.325Z,34.30
2018-01-21T18:06:52.545Z,31.75
2018-01-21T18:09:20.005Z,34.60
2018-01-21T18:11:47.461Z,31.05
2018-01-21T18:14:14.897Z,30.25
2018-01-21T18:16:42.477Z,29.45
2018-01-21T18:19:09.903Z,31.58
2018-01-21T18:21:37.390Z,29.75
2018-01-21T18:24:04.822Z,27.92
2018-01-21T18:26:32.301Z,28.73
2018-01-21T18:28:59.839Z,30.05
2018-01-21T18:31:27.294Z,27.75
2018-01-21T18:33:54.745Z,28.08
2018-01-21T18:36:22.169Z,31.23
2018-01-21T18:38:50.400Z,28.38
2018-01-21T18:41:17.827Z,30.23
2018-01-21T18:43:45.285Z,28.02
2018-01-21T18:46:12.864Z,27.67
2018-01-21T18:48:40.306Z,27.35
2018-01-21T18:51:07.743Z,27.67
2018-01-21T18:53:35.255Z,26.55
2018-01-21T18:56:02.806Z,24.63
2018-01-21T18:58:30.249Z,25.33
2018-01-21T19:00:57.685Z,33.97
2018-01-21T19:03:25.186Z,27.62
2018-01-21T19:05:52.609Z,29.75
2018-01-21T19:08:20.042Z,30.95
2018-01-21T19:10:47.631Z,28.08
2018-01-21T19:13:15.090Z,26.37
2018-01-21T19:15:42.508Z,26.77
2018-01-21T19:18:10.710Z,28.10
2018-01-21T19:20:38.187Z,26.67
2018-01-21T19:23:05.637Z,29.17
2018-01-21T19:25:33.089Z,27.00
2018-01-21T19:28:00.550Z,27.37
2018-01-21T19:30:28.015Z,29.63
2018-01-21T19:32:55.470Z,32.33
2018-01-21T19:35:22.909Z,26.00
2018-01-21T19:37:50.353Z,29.55
2018-01-21T19:40:23.401Z,30.25
2018-01-21T19:42:54.523Z,29.45
2018-01-21T19:45:21.964Z,32.00
2018-01-21T19:47:49.396Z,28.65
2018-01-21T19:50:16.974Z,29.70
2018-01-21T19:52:44.438Z,33.05
2018-01-21T19:55:11.891Z,32.88
2018-01-21T19:57:39.346Z,33.08
2018-01-21T20:00:06.810Z,34.35
2018-01-21T20:02:34.271Z,33.35
2018-01-21T20:05:01.718Z,34.00
2018-01-21T20:07:29.150Z,39.30
2018-01-21T20:09:56.642Z,37.85
2018-01-21T20:12:24.165Z,44.55
2018-01-21T20:14:51.641Z,41.35
2018-01-21T20:17:19.070Z,41.60
2018-01-21T20:19:46.522Z,46.90
2018-01-21T20:22:13.946Z,41.73
2018-01-21T20:24:42.145Z,44.00
2018-01-21T20:27:09.637Z,45.47
2018-01-21T20:29:37.177Z,41.90
2018-01-21T20:32:04.658Z,47.13
2018-01-21T20:34:32.175Z,44.83
2018-01-21T20:36:59.664Z,41.10
2018-01-21T20:39:27.158Z,41.22
2018-01-21T20:41:54.664Z,41.67
2018-01-21T20:44:22.254Z,43.78
2018-01-21T20:46:49.722Z,37.63
2018-01-21T20:49:17.184Z,43.80
2018-01-21T20:51:50.366Z,42.70
2018-01-21T20:54:23.696Z,40.20
2018-01-21T20:56:52.202Z,41.60
2018-01-21T20:59:19.812Z,45.10
2018-01-21T21:01:47.318Z,47.85
2018-01-21T21:04:14.753Z,43.65
2018-01-21T21:06:42.186Z,42.05
2018-01-21T21:09:10.404Z,41.17
2018-01-21T21:11:37.877Z,44.42
2018-01-21T21:14:05.319Z,43.97
2018-01-21T21:16:32.750Z,45.50
2018-01-21T21:19:00.229Z,41.00
2018-01-21T21:21:27.705Z,46.37
2018-01-21T21:23:55.157Z,44.90
2018-01-21T21:26:22.597Z,50.05
2018-01-21T21:28:50.026Z,51.17
2018-01-21T21:31:18.242Z,46.75
2018-01-21T21:33:45.810Z,50.78
2018-01-21T21:36:13.242Z,52.58
2018-01-21T21:38:40.683Z,52.38
2018-01-21T21:41:08.174Z,51.28
2018-01-21T21:43:35.604Z,50.00
2018-01-21T21:46:03.099Z,49.63
2018-01-21T21:48:30.484Z,47.85
2018-01-21T21:50:58.719Z,44.92
2018-01-21T21:53:26.260Z,44.85
2018-01-21T21:55:53.739Z,39.42
2018-01-21T21:58:21.185Z,34.72
2018-01-21T22:00:48.622Z,38.00
2018-01-21T22:03:16.049Z,38.17
2018-01-21T22:05:44.261Z,38.43
2018-01-21T22:08:11.681Z,36.10
2018-01-21T22:10:39.905Z,36.03
2018-01-21T22:13:07.462Z,34.67
2018-01-21T22:15:34.901Z,35.53
2018-01-21T22:18:02.377Z,35.90
2018-01-21T22:20:29.816Z,34.70
2018-01-21T22:22:57.282Z,32.10
2018-01-21T22:25:24.713Z,31.97
2018-01-21T22:27:52.130Z,34.93
2018-01-21T22:30:19.566Z,35.23
2018-01-21T22:32:47.010Z,34.50
2018-01-21T22:35:14.433Z,37.27
2018-01-21T22:37:41.930Z,32.75
2018-01-21T22:40:09.366Z,35.05
2018-01-21T22:42:36.845Z,36.17
2018-01-21T22:45:04.307Z,34.92
2018-01-21T22:47:31.746Z,35.83
2018-01-21T22:49:59.199Z,35.40
2018-01-21T22:52:26.642Z,33.70
2018-01-21T22:54:54.130Z,30.85
2018-01-21T22:57:21.562Z,31.90
2018-01-21T22:59:49.038Z,32.95
2018-01-21T23:02:16.476Z,31.20
2018-01-21T23:04:43.906Z,30.58
2018-01-21T23:07:12.130Z,30.37
2018-01-21T23:09:39.571Z,34.35
2018-01-21T23:12:06.998Z,28.73
2018-01-21T23:14:34.514Z,32.13
2018-01-21T23:17:01.974Z,32.00
2018-01-21T23:19:29.396Z,30.95
2018-01-21T23:21:56.873Z,34.45
2018-01-21T23:24:24.300Z,31.58
2018-01-21T23:26:51.774Z,28.33
2018-01-21T23:29:19.205Z,29.85
2018-01-21T23:31:46.642Z,33.55
2018-01-21T23:34:14.848Z,32.58
2018-01-21T23:36:42.326Z,32.08
2018-01-21T23:39:09.772Z,32.92
2018-01-21T23:41:37.225Z,31.80
2018-01-21T23:44:04.690Z,31.77
2018-01-21T23:46:32.137Z,32.03
2018-01-21T23:48:59.597Z,30.93
2018-01-21T23:51:27.054Z,28.48
2018-01-21T23:53:54.496Z,34.65
2018-01-21T23:56:21.945Z,33.13
2018-01-21T23:58:49.438Z,36.42
